Time;durP1;ratioP1;P1;durP2;ratioP2;P2;SDS_P1;SDS_P2;PMS_P1;PMS_P2;Temp;Humidity;BMP_temperature;BMP_pressure;BME280_temperature;BME280_humidity;BME280_pressure;Samples;Min_cycle;Max_cycle;Signal;HPM_P1;HPM_P2
2023/05/01 00:02:00;;;;;;;;;33.75;29.75;;;;;;;;6207207;22;49715;-71
2023/05/01 00:04:25;;;;;;;;;34.75;32.25;;;;;;;;6234870;22;50016;-71
2023/05/01 00:06:51;;;;;;;;;34.50;33.00;;;;;;;;6234742;22;49721;-70
2023/05/01 00:09:17;;;;;;;;;36.25;31.50;;;;;;;;6233902;22;50364;-70
2023/05/01 00:11:42;;;;;;;;;38.00;35.00;;;;;;;;6234582;22;49706;-71
2023/05/01 00:14:07;;;;;;;;;38.50;32.75;;;;;;;;6234986;22;49970;-70
2023/05/01 00:16:34;;;;;;;;;40.75;35.75;;;;;;;;6234863;22;49952;-70
2023/05/01 00:18:59;;;;;;;;;33.00;32.00;;;;;;;;6234696;22;49655;-71
2023/05/01 00:21:24;;;;;;;;;32.75;29.50;;;;;;;;6234399;22;49658;-71
2023/05/01 00:23:50;;;;;;;;;34.00;32.75;;;;;;;;6234872;22;49991;-71
2023/05/01 00:26:15;;;;;;;;;33.75;32.25;;;;;;;;6234711;22;49609;-71
2023/05/01 00:28:40;;;;;;;;;31.00;26.25;;;;;;;;6234188;22;51251;-71
2023/05/01 00:31:05;;;;;;;;;38.25;34.75;;;;;;;;6207558;22;50036;-71
2023/05/01 00:33:30;;;;;;;;;31.25;31.00;;;;;;;;6234628;22;49770;-70
2023/05/01 00:35:56;;;;;;;;;32.50;31.75;;;;;;;;6207318;22;49916;-71
2023/05/01 00:38:22;;;;;;;;;36.00;33.50;;;;;;;;6234778;22;50572;-71
2023/05/01 00:40:48;;;;;;;;;39.50;35.50;;;;;;;;6234505;22;50168;-71
2023/05/01 00:43:13;;;;;;;;;38.50;35.75;;;;;;;;6234813;22;49919;-70
2023/05/01 00:45:42;;;;;;;;;36.50;33.00;;;;;;;;6234695;22;49892;-70
2023/05/01 00:48:08;;;;;;;;;34.50;33.25;;;;;;;;6234478;22;50668;-71
2023/05/01 00:50:33;;;;;;;;;36.25;34.50;;;;;;;;6234678;22;49709;-71
2023/05/01 00:52:59;;;;;;;;;33.25;32.75;;;;;;;;6234940;22;49694;-70
2023/05/01 00:55:25;;;;;;;;;37.25;34.50;;;;;;;;6234842;22;49875;-71
2023/05/01 00:57:50;;;;;;;;;33.25;32.00;;;;;;;;6234498;22;50203;-70
2023/05/01 01:00:18;;;;;;;;;33.00;31.25;;;;;;;;6206819;22;49572;-70
2023/05/01 01:02:43;;;;;;;;;35.50;34.00;;;;;;;;6234073;22;49617;-70
2023/05/01 01:05:08;;;;;;;;;33.50;29.25;;;;;;;;6234976;22;49726;-70
2023/05/01 01:07:33;;;;;;;;;34.50;33.50;;;;;;;;6234687;22;50074;-70
2023/05/01 01:10:19;;;;;;;;;37.25;33.75;;;;;;;;6233856;22;50135;-71
2023/05/01 01:12:50;;;;;;;;;32.75;32.25;;;;;;;;6234390;22;49744;-71
2023/05/01 01:15:26;;;;;;;;;36.00;34.25;;;;;;;;6234604;22;49912;-70
2023/05/01 01:18:10;;;;;;;;;30.25;29.75;;;;;;;;6234475;22;49805;-71
2023/05/01 01:20:38;;;;;;;;;37.75;33.50;;;;;;;;6234358;22;50031;-70
2023/05/01 01:23:23;;;;;;;;;32.00;28.50;;;;;;;;6234336;22;49696;-70
2023/05/01 01:26:07;;;;;;;;;31.75;29.75;;;;;;;;6235241;22;49664;-71
2023/05/01 01:28:50;;;;;;;;;34.50;33.75;;;;;;;;6234090;22;50766;-72
2023/05/01 01:31:31;;;;;;;;;33.75;29.75;;;;;;;;6234525;22;49913;-70
2023/05/01 01:34:13;;;;;;;;;35.00;33.00;;;;;;;;6234724;22;49931;-71
2023/05/01 01:36:41;;;;;;;;;33.75;33.00;;;;;;;;6234477;22;49963;-71
2023/05/01 01:39:06;;;;;;;;;34.75;31.50;;;;;;;;6233890;22;51650;-70
2023/05/01 01:41:33;;;;;;;;;31.20;30.00;;;;;;;;6234983;22;50218;-71
2023/05/01 01:44:08;;;;;;;;;32.75;32.50;;;;;;;;6234134;22;49641;-70
2023/05/01 01:46:35;;;;;;;;;37.25;29.00;;;;;;;;6234565;22;49959;-70
2023/05/01 01:49:04;;;;;;;;;31.75;29.25;;;;;;;;6234168;22;50068;-70
2023/05/01 01:51:30;;;;;;;;;30.75;29.00;;;;;;;;6234282;22;49704;-70
2023/05/01 01:53:59;;;;;;;;;32.50;31.50;;;;;;;;6234185;22;50114;-70
2023/05/01 01:56:25;;;;;;;;;28.00;27.75;;;;;;;;6234317;22;49713;-70
2023/05/01 01:58:51;;;;;;;;;30.25;28.00;;;;;;;;6233825;22;51470;-71
2023/05/01 02:01:18;;;;;;;;;35.25;30.75;;;;;;;;6234307;22;49658;-71
2023/05/01 02:03:45;;;;;;;;;35.50;32.25;;;;;;;;6234155;22;49694;-71
2023/05/01 02:06:11;;;;;;;;;28.50;26.00;;;;;;;;6234632;22;49622;-71
2023/05/01 02:08:37;;;;;;;;;29.50;28.00;;;;;;;;6233907;22;51689;-71
2023/05/01 02:11:03;;;;;;;;;33.25;31.00;;;;;;;;6233589;22;49717;-70
2023/05/01 02:13:30;;;;;;;;;29.00;28.50;;;;;;;;6233725;22;49722;-70
2023/05/01 02:15:57;;;;;;;;;27.25;26.25;;;;;;;;6234284;22;49624;-71
2023/05/01 02:18:23;;;;;;;;;28.00;24.00;;;;;;;;6233244;22;50870;-70
2023/05/01 02:20:49;;;;;;;;;32.25;29.75;;;;;;;;6234489;22;49963;-71
2023/05/01 02:23:14;;;;;;;;;29.00;25.00;;;;;;;;6234325;22;50038;-71
2023/05/01 02:25:41;;;;;;;;;27.50;27.00;;;;;;;;6234639;22;49648;-70
2023/05/01 02:28:11;;;;;;;;;30.00;27.75;;;;;;;;6233614;22;50019;-70
2023/05/01 02:30:37;;;;;;;;;26.50;26.50;;;;;;;;6206908;22;49660;-70
2023/05/01 02:33:03;;;;;;;;;25.00;22.75;;;;;;;;6234287;22;49556;-70
2023/05/01 02:35:28;;;;;;;;;29.00;28.00;;;;;;;;6206469;22;49948;-71
2023/05/01 02:37:53;;;;;;;;;30.75;27.25;;;;;;;;6206512;22;51815;-71
2023/05/01 02:40:18;;;;;;;;;27.25;26.50;;;;;;;;6234281;22;49944;-71
2023/05/01 02:42:44;;;;;;;;;26.75;20.00;;;;;;;;6234098;22;49645;-70
2023/05/01 02:45:14;;;;;;;;;28.50;26.00;;;;;;;;6234567;22;49906;-71
2023/05/01 02:47:41;;;;;;;;;27.25;25.25;;;;;;;;6234133;22;49698;-70
2023/05/01 02:50:07;;;;;;;;;24.25;24.25;;;;;;;;6234113;22;49602;-70
2023/05/01 02:52:33;;;;;;;;;28.25;25.00;;;;;;;;6234144;22;50116;-70
2023/05/01 02:54:58;;;;;;;;;25.50;24.00;;;;;;;;6234318;22;49915;-70
2023/05/01 02:57:24;;;;;;;;;26.75;24.75;;;;;;;;6233810;22;50494;-70
2023/05/01 02:59:49;;;;;;;;;26.25;25.50;;;;;;;;6232994;22;49832;-70
2023/05/01 03:02:14;;;;;;;;;28.50;24.50;;;;;;;;6233598;22;49907;-70
2023/05/01 03:04:40;;;;;;;;;25.75;24.75;;;;;;;;6234372;22;49924;-71
2023/05/01 03:07:06;;;;;;;;;21.75;21.00;;;;;;;;6233522;22;51408;-70
2023/05/01 03:09:31;;;;;;;;;27.75;26.00;;;;;;;;6233662;22;49952;-70
2023/05/01 03:11:56;;;;;;;;;21.75;21.00;;;;;;;;6233674;22;49579;-70
2023/05/01 03:14:21;;;;;;;;;27.50;26.75;;;;;;;;6234476;22;49822;-70
2023/05/01 03:16:47;;;;;;;;;27.75;25.00;;;;;;;;6233928;22;49591;-70
2023/05/01 03:19:12;;;;;;;;;29.00;28.00;;;;;;;;6233794;22;49675;-71
2023/05/01 03:21:37;;;;;;;;;32.75;27.25;;;;;;;;6206761;22;50125;-70
2023/05/01 03:24:02;;;;;;;;;26.75;25.75;;;;;;;;6234399;22;50023;-71
2023/05/01 03:26:28;;;;;;;;;32.25;29.25;;;;;;;;6233133;22;50465;-70
2023/05/01 03:28:54;;;;;;;;;30.50;27.25;;;;;;;;6233923;22;50007;-71
2023/05/01 03:31:19;;;;;;;;;29.50;27.50;;;;;;;;6234039;22;50082;-70
2023/05/01 03:33:44;;;;;;;;;35.50;34.00;;;;;;;;6234464;22;49673;-70
2023/05/01 03:36:10;;;;;;;;;29.75;28.25;;;;;;;;6233077;22;50467;-71
2023/05/01 03:38:35;;;;;;;;;30.75;30.00;;;;;;;;6233795;22;49915;-71
2023/05/01 03:41:00;;;;;;;;;34.00;32.50;;;;;;;;6233666;22;49782;-71
2023/05/01 03:43:26;;;;;;;;;31.75;31.00;;;;;;;;6234147;22;49883;-71
2023/05/01 03:45:51;;;;;;;;;26.50;26.25;;;;;;;;6233697;22;50565;-71
2023/05/01 03:48:17;;;;;;;;;32.50;28.75;;;;;;;;6233687;22;49674;-71
2023/05/01 03:50:42;;;;;;;;;32.25;31.00;;;;;;;;6233534;22;49588;-70
2023/05/01 03:53:07;;;;;;;;;30.25;28.25;;;;;;;;6233746;22;49956;-71
2023/05/01 03:55:32;;;;;;;;;31.25;28.75;;;;;;;;6232862;22;51723;-70
2023/05/01 03:57:58;;;;;;;;;35.25;33.75;;;;;;;;6233255;22;50054;-70
2023/05/01 04:00:23;;;;;;;;;35.50;34.25;;;;;;;;6232437;22;49703;-71
2023/05/01 04:02:48;;;;;;;;;37.50;36.00;;;;;;;;6233651;22;49969;-70
2023/05/01 04:05:13;;;;;;;;;37.75;33.75;;;;;;;;6232913;22;51236;-71
2023/05/01 04:07:39;;;;;;;;;42.25;36.00;;;;;;;;6233105;22;49673;-70
2023/05/01 04:10:06;;;;;;;;;43.25;37.75;;;;;;;;6233017;22;49762;-70
2023/05/01 04:12:31;;;;;;;;;41.75;36.00;;;;;;;;6233552;22;49635;-70
2023/05/01 04:14:56;;;;;;;;;44.25;37.50;;;;;;;;6232699;22;50458;-70
2023/05/01 04:17:21;;;;;;;;;49.20;35.00;;;;;;;;6206107;22;49612;-70
2023/05/01 04:19:46;;;;;;;;;41.25;35.75;;;;;;;;6233228;22;49765;-71
2023/05/01 04:22:12;;;;;;;;;39.50;35.50;;;;;;;;6233399;22;49508;-70
2023/05/01 04:24:37;;;;;;;;;40.00;37.50;;;;;;;;6233063;22;50457;-71
2023/05/01 04:27:03;;;;;;;;;44.00;37.00;;;;;;;;6233125;22;50017;-70
2023/05/01 04:29:28;;;;;;;;;43.00;36.00;;;;;;;;6233418;22;49627;-71
2023/05/01 04:31:53;;;;;;;;;36.00;31.50;;;;;;;;6233414;22;50136;-70
2023/05/01 04:34:19;;;;;;;;;48.50;40.25;;;;;;;;6233509;22;50401;-71
2023/05/01 04:36:44;;;;;;;;;45.75;37.50;;;;;;;;6232600;22;49950;-70
2023/05/01 04:39:09;;;;;;;;;43.25;38.25;;;;;;;;6233951;22;49681;-70
2023/05/01 04:41:34;;;;;;;;;46.50;38.75;;;;;;;;6234681;22;49611;-70
2023/05/01 04:43:59;;;;;;;;;52.00;40.75;;;;;;;;6234423;22;49815;-71
2023/05/01 04:46:25;;;;;;;;;47.00;41.50;;;;;;;;6234894;22;49638;-70
2023/05/01 04:48:50;;;;;;;;;49.50;41.25;;;;;;;;6234978;22;49693;-71
2023/05/01 04:51:15;;;;;;;;;43.75;38.75;;;;;;;;6206886;22;49696;-70
2023/05/01 04:53:40;;;;;;;;;53.50;38.50;;;;;;;;6234524;22;49963;-70
2023/05/01 04:56:05;;;;;;;;;51.00;41.50;;;;;;;;6234424;22;49642;-70
2023/05/01 04:58:31;;;;;;;;;54.50;39.00;;;;;;;;6234245;22;49961;-70
2023/05/01 05:00:56;;;;;;;;;50.75;40.00;;;;;;;;6235306;22;49962;-70
2023/05/01 05:03:22;;;;;;;;;52.75;41.50;;;;;;;;6234082;22;50662;-71
2023/05/01 05:05:47;;;;;;;;;44.50;38.00;;;;;;;;6234830;22;49705;-71
2023/05/01 05:08:12;;;;;;;;;56.00;44.75;;;;;;;;6233589;22;49766;-70
2023/05/01 05:10:37;;;;;;;;;54.25;42.25;;;;;;;;6234327;22;50077;-70
2023/05/01 05:13:02;;;;;;;;;50.25;40.50;;;;;;;;6233977;22;51396;-71
2023/05/01 05:15:27;;;;;;;;;53.50;41.00;;;;;;;;6234625;22;50096;-71
2023/05/01 05:17:53;;;;;;;;;48.75;40.50;;;;;;;;6234434;22;49677;-71
2023/05/01 05:20:18;;;;;;;;;51.50;42.00;;;;;;;;6234619;22;49928;-71
2023/05/01 05:22:43;;;;;;;;;55.00;43.50;;;;;;;;6233977;22;51482;-71
2023/05/01 05:25:08;;;;;;;;;56.50;46.50;;;;;;;;6234231;22;49624;-71
2023/05/01 05:27:36;;;;;;;;;50.50;41.50;;;;;;;;6234498;22;49554;-70
2023/05/01 05:30:04;;;;;;;;;53.50;42.75;;;;;;;;6234677;22;49546;-71
2023/05/01 05:32:30;;;;;;;;;54.50;44.25;;;;;;;;6234111;22;50284;-71
2023/05/01 05:34:55;;;;;;;;;55.00;44.50;;;;;;;;6206747;22;50031;-70
2023/05/01 05:37:20;;;;;;;;;51.00;44.50;;;;;;;;6234640;22;49860;-72
2023/05/01 05:39:45;;;;;;;;;51.50;41.25;;;;;;;;6207421;22;50187;-71
2023/05/01 05:42:11;;;;;;;;;53.25;43.25;;;;;;;;6181123;22;50562;-71
2023/05/01 05:44:36;;;;;;;;;53.00;44.50;;;;;;;;6234117;22;50053;-71
2023/05/01 05:47:01;;;;;;;;;51.75;44.00;;;;;;;;6206964;22;49687;-71
2023/05/01 05:49:26;;;;;;;;;54.00;44.75;;;;;;;;6233821;22;49617;-71
2023/05/01 05:51:51;;;;;;;;;56.50;45.50;;;;;;;;6233891;22;50359;-69
2023/05/01 05:54:17;;;;;;;;;52.25;41.50;;;;;;;;6234820;22;49652;-70
2023/05/01 05:56:42;;;;;;;;;57.50;46.25;;;;;;;;6234512;22;49694;-70
2023/05/01 05:59:07;;;;;;;;;55.00;44.75;;;;;;;;6207254;22;49898;-69
2023/05/01 06:01:33;;;;;;;;;54.00;45.50;;;;;;;;6233964;22;51396;-70
2023/05/01 06:03:58;;;;;;;;;55.25;46.50;;;;;;;;6234176;22;49634;-70
2023/05/01 06:06:24;;;;;;;;;58.50;46.50;;;;;;;;6234515;22;49667;-71
2023/05/01 06:08:49;;;;;;;;;63.75;49.50;;;;;;;;6234692;22;49610;-71
2023/05/01 06:11:14;;;;;;;;;61.00;49.25;;;;;;;;6234235;22;50452;-69
2023/05/01 06:13:39;;;;;;;;;55.50;44.25;;;;;;;;6234543;22;50120;-70
2023/05/01 06:16:06;;;;;;;;;59.00;46.50;;;;;;;;6234028;22;49904;-71
2023/05/01 06:18:31;;;;;;;;;59.50;49.00;;;;;;;;6234078;22;50247;-70
2023/05/01 06:20:57;;;;;;;;;59.50;47.50;;;;;;;;6234122;22;49824;-71
2023/05/01 06:23:22;;;;;;;;;67.00;48.00;;;;;;;;6233940;22;49742;-71
2023/05/01 06:25:48;;;;;;;;;60.00;48.75;;;;;;;;6234502;22;49912;-71
2023/05/01 06:28:13;;;;;;;;;61.00;49.25;;;;;;;;6207046;22;50433;-71
2023/05/01 06:30:38;;;;;;;;;59.50;48.75;;;;;;;;6234260;22;50781;-71
2023/05/01 06:33:03;;;;;;;;;58.00;48.00;;;;;;;;6206830;22;50018;-71
2023/05/01 06:35:28;;;;;;;;;60.75;48.25;;;;;;;;6234732;22;50102;-71
2023/05/01 06:37:54;;;;;;;;;56.25;46.00;;;;;;;;6234608;22;49587;-71
2023/05/01 06:40:20;;;;;;;;;58.50;47.25;;;;;;;;6233548;22;50310;-71
2023/05/01 06:42:45;;;;;;;;;58.75;47.25;;;;;;;;6233894;22;50160;-71
2023/05/01 06:45:10;;;;;;;;;59.75;49.75;;;;;;;;6234338;22;50066;-70
2023/05/01 06:47:36;;;;;;;;;64.00;48.75;;;;;;;;6206792;22;49669;-71
2023/05/01 06:50:01;;;;;;;;;54.50;44.75;;;;;;;;6234088;22;49762;-70
2023/05/01 06:52:26;;;;;;;;;64.75;50.00;;;;;;;;6234105;22;50007;-69
2023/05/01 06:54:51;;;;;;;;;63.25;50.75;;;;;;;;6233860;22;49790;-70
2023/05/01 06:57:17;;;;;;;;;62.75;47.50;;;;;;;;6234210;22;49986;-70
2023/05/01 06:59:42;;;;;;;;;55.00;46.00;;;;;;;;6206001;22;52081;-71
2023/05/01 07:02:07;;;;;;;;;54.50;45.00;;;;;;;;6233606;22;49686;-70
2023/05/01 07:04:33;;;;;;;;;51.25;42.50;;;;;;;;6233871;22;49686;-72
2023/05/01 07:06:59;;;;;;;;;53.75;42.25;;;;;;;;6234452;22;49596;-71
2023/05/01 07:09:25;;;;;;;;;51.50;41.75;;;;;;;;6233238;22;50602;-70
2023/05/01 07:11:50;;;;;;;;;53.25;43.25;;;;;;;;6234338;22;49781;-71
2023/05/01 07:14:15;;;;;;;;;46.00;37.25;;;;;;;;6234059;22;49571;-71
2023/05/01 07:16:41;;;;;;;;;40.00;36.00;;;;;;;;6233467;22;49955;-71
2023/05/01 07:19:06;;;;;;;;;41.00;34.50;;;;;;;;6233795;22;50258;-71
2023/05/01 07:21:31;;;;;;;;;48.00;35.50;;;;;;;;6233711;22;49580;-71
2023/05/01 07:23:57;;;;;;;;;44.00;35.25;;;;;;;;6234089;22;49939;-71
2023/05/01 07:26:24;;;;;;;;;40.00;35.00;;;;;;;;6233772;22;49894;-72
2023/05/01 07:28:49;;;;;;;;;36.50;32.50;;;;;;;;6233787;22;50779;-70
2023/05/01 07:31:15;;;;;;;;;36.25;31.75;;;;;;;;6240172;22;50124;-69
2023/05/01 07:33:41;;;;;;;;;37.75;31.75;;;;;;;;6264832;22;49871;-69
2023/05/01 07:36:06;;;;;;;;;29.00;29.00;;;;;;;;6264763;22;49939;-69
2023/05/01 07:38:32;;;;;;;;;28.50;27.25;;;;;;;;6264483;22;49741;-69
2023/05/01 07:40:57;;;;;;;;;34.00;28.75;;;;;;;;6264584;22;49540;-69
2023/05/01 07:43:22;;;;;;;;;31.00;29.25;;;;;;;;6264878;22;49626;-69
2023/05/01 07:45:56;;;;;;;;;23.50;22.50;;;;;;;;6264786;22;49555;-69
2023/05/01 07:48:21;;;;;;;;;26.25;24.75;;;;;;;;6264062;22;50941;-69
2023/05/01 07:50:46;;;;;;;;;21.50;21.50;;;;;;;;6264828;22;49813;-69
2023/05/01 07:53:11;;;;;;;;;19.50;18.25;;;;;;;;6264820;22;50030;-69
2023/05/01 07:55:37;;;;;;;;;25.25;20.50;;;;;;;;6237095;22;49916;-69
2023/05/01 07:58:02;;;;;;;;;23.25;21.00;;;;;;;;6264264;22;50736;-69
2023/05/01 08:00:27;;;;;;;;;19.25;18.50;;;;;;;;6264174;22;49844;-69
2023/05/01 08:02:53;;;;;;;;;22.50;19.00;;;;;;;;6264396;22;49906;-69
2023/05/01 08:05:18;;;;;;;;;15.00;15.00;;;;;;;;6264865;22;49855;-69
2023/05/01 08:07:43;;;;;;;;;24.00;20.00;;;;;;;;6264339;22;49803;-69
2023/05/01 08:10:09;;;;;;;;;30.75;24.25;;;;;;;;6264349;22;49764;-69
2023/05/01 08:12:34;;;;;;;;;26.75;24.25;;;;;;;;6265436;22;49986;-69
2023/05/01 08:15:00;;;;;;;;;28.00;26.50;;;;;;;;6265705;22;50193;-69
2023/05/01 08:17:25;;;;;;;;;22.25;21.25;;;;;;;;6265150;22;51377;-69
2023/05/01 08:19:52;;;;;;;;;22.50;20.00;;;;;;;;6265190;22;49539;-69
2023/05/01 08:22:17;;;;;;;;;26.75;26.75;;;;;;;;6265566;22;49673;-69
2023/05/01 08:24:42;;;;;;;;;31.25;27.25;;;;;;;;6266355;22;49980;-69
2023/05/01 08:27:08;;;;;;;;;31.25;27.75;;;;;;;;6265433;22;49821;-69
2023/05/01 08:29:33;;;;;;;;;34.00;28.75;;;;;;;;6265491;22;49602;-69
2023/05/01 08:31:58;;;;;;;;;32.25;28.25;;;;;;;;6248690;22;49977;-69
2023/05/01 08:34:23;;;;;;;;;32.25;31.25;;;;;;;;6235417;22;49772;-69
2023/05/01 08:36:49;;;;;;;;;30.25;26.00;;;;;;;;6234663;22;50798;-69
2023/05/01 08:39:14;;;;;;;;;29.25;24.50;;;;;;;;6234425;22;49527;-69
2023/05/01 08:41:42;;;;;;;;;26.25;25.25;;;;;;;;6235231;22;49911;-69
2023/05/01 08:44:09;;;;;;;;;32.00;27.00;;;;;;;;6234705;22;49862;-69
2023/05/01 08:46:43;;;;;;;;;22.00;20.50;;;;;;;;6234667;22;50107;-69
2023/05/01 08:49:10;;;;;;;;;20.00;19.00;;;;;;;;6234753;22;50062;-69
2023/05/01 08:51:35;;;;;;;;;15.50;15.50;;;;;;;;6234583;22;49895;-69
2023/05/01 08:54:02;;;;;;;;;28.75;23.75;;;;;;;;6235047;22;49945;-69
2023/05/01 08:56:28;;;;;;;;;21.00;17.75;;;;;;;;6234470;22;50824;-69
2023/05/01 08:58:54;;;;;;;;;18.75;16.00;;;;;;;;6234459;22;49838;-69
2023/05/01 09:01:21;;;;;;;;;20.75;19.00;;;;;;;;6234424;22;49971;-71
2023/05/01 09:03:48;;;;;;;;;17.50;17.25;;;;;;;;6234938;22;49573;-69
2023/05/01 09:06:13;;;;;;;;;20.00;19.00;;;;;;;;6234404;22;50892;-69
2023/05/01 09:08:38;;;;;;;;;24.75;18.25;;;;;;;;6207079;22;49608;-69
2023/05/01 09:11:03;;;;;;;;;17.75;17.75;;;;;;;;6234786;22;49660;-69
2023/05/01 09:13:29;;;;;;;;;17.00;16.75;;;;;;;;6234565;22;49532;-69
2023/05/01 09:15:55;;;;;;;;;13.25;12.25;;;;;;;;6234451;22;50668;-69
2023/05/01 09:18:20;;;;;;;;;24.50;17.25;;;;;;;;6234668;22;50125;-69
2023/05/01 09:20:46;;;;;;;;;18.50;17.75;;;;;;;;6234456;22;49960;-69
2023/05/01 09:23:11;;;;;;;;;8.00;8.00;;;;;;;;6234339;22;49726;-69
2023/05/01 09:25:37;;;;;;;;;19.25;16.50;;;;;;;;6234515;22;49804;-69
2023/05/01 09:28:06;;;;;;;;;16.25;16.25;;;;;;;;6234029;22;49798;-70
2023/05/01 09:30:32;;;;;;;;;13.50;13.50;;;;;;;;6234374;22;49911;-69
2023/05/01 09:33:08;;;;;;;;;16.50;16.50;;;;;;;;6234392;22;49984;-70
2023/05/01 09:35:50;;;;;;;;;13.75;12.50;;;;;;;;6234117;22;49974;-69
2023/05/01 09:38:19;;;;;;;;;15.75;14.00;;;;;;;;6234525;22;49910;-69
2023/05/01 09:40:45;;;;;;;;;17.25;16.00;;;;;;;;6234401;22;49816;-69
2023/05/01 09:43:11;;;;;;;;;12.75;12.25;;;;;;;;6234722;22;49972;-69
2023/05/01 09:45:37;;;;;;;;;12.00;11.75;;;;;;;;6234501;22;49813;-69
2023/05/01 09:48:12;;;;;;;;;16.25;12.00;;;;;;;;6234446;22;49617;-69
2023/05/01 09:50:40;;;;;;;;;8.25;8.25;;;;;;;;6206729;22;50091;-69
2023/05/01 09:53:06;;;;;;;;;11.00;9.75;;;;;;;;6234517;22;49550;-69
2023/05/01 09:55:31;;;;;;;;;12.25;8.50;;;;;;;;6234178;22;49647;-69
2023/05/01 09:57:59;;;;;;;;;10.00;9.25;;;;;;;;6234164;22;49917;-68
2023/05/01 10:00:25;;;;;;;;;8.25;7.50;;;;;;;;6234483;22;50022;-68
2023/05/01 10:02:50;;;;;;;;;8.50;8.50;;;;;;;;6234715;22;49943;-68
2023/05/01 10:05:17;;;;;;;;;11.50;10.00;;;;;;;;6234374;22;50494;-68
2023/05/01 10:07:58;;;;;;;;;11.25;9.50;;;;;;;;6234463;22;49694;-68
2023/05/01 10:10:23;;;;;;;;;13.00;10.50;;;;;;;;6233762;22;49636;-68
2023/05/01 10:12:48;;;;;;;;;16.00;13.25;;;;;;;;6234651;22;49575;-68
2023/05/01 10:15:14;;;;;;;;;10.25;9.75;;;;;;;;6234150;22;51172;-68
2023/05/01 10:17:40;;;;;;;;;13.00;12.00;;;;;;;;6234512;22;49753;-68
2023/05/01 10:20:06;;;;;;;;;14.00;11.75;;;;;;;;6234354;22;49802;-68
2023/05/01 10:22:32;;;;;;;;;20.25;19.00;;;;;;;;6234485;22;49604;-68
2023/05/01 10:24:58;;;;;;;;;17.50;15.25;;;;;;;;6233764;22;49913;-68
2023/05/01 10:27:24;;;;;;;;;20.50;18.00;;;;;;;;6234421;22;50037;-68
2023/05/01 10:29:52;;;;;;;;;16.50;15.75;;;;;;;;6233965;22;49742;-69
2023/05/01 10:32:17;;;;;;;;;20.00;16.75;;;;;;;;6234220;22;49618;-68
2023/05/01 10:34:47;;;;;;;;;13.50;13.25;;;;;;;;6234077;22;49663;-68
2023/05/01 10:37:14;;;;;;;;;14.75;12.00;;;;;;;;6233878;22;49945;-69
2023/05/01 10:39:40;;;;;;;;;14.00;12.75;;;;;;;;6206402;22;49997;-68
2023/05/01 10:42:09;;;;;;;;;12.50;12.25;;;;;;;;6234580;22;49918;-68
2023/05/01 10:44:35;;;;;;;;;14.75;14.75;;;;;;;;6233908;22;50322;-69
2023/05/01 10:47:20;;;;;;;;;16.00;15.00;;;;;;;;6233969;22;49646;-68
2023/05/01 10:50:06;;;;;;;;;18.50;18.50;;;;;;;;6233198;22;49688;-69
2023/05/01 10:52:51;;;;;;;;;15.50;13.25;;;;;;;;6234342;22;49965;-68
2023/05/01 10:55:35;;;;;;;;;12.50;12.50;;;;;;;;6233237;22;50625;-69
2023/05/01 10:58:00;;;;;;;;;14.75;14.75;;;;;;;;6233757;22;49637;-69
2023/05/01 11:00:25;;;;;;;;;14.75;13.00;;;;;;;;6233811;22;50018;-69
2023/05/01 11:02:51;;;;;;;;;15.50;14.00;;;;;;;;6207233;22;49952;-68
2023/05/01 11:05:16;;;;;;;;;14.25;14.25;;;;;;;;6234007;22;49903;-69
2023/05/01 11:07:41;;;;;;;;;12.75;11.50;;;;;;;;6234342;22;49621;-69
2023/05/01 11:10:24;;;;;;;;;13.75;13.50;;;;;;;;6233937;22;49903;-68
2023/05/01 11:12:50;;;;;;;;;15.75;15.25;;;;;;;;6234450;22;49910;-68
2023/05/01 11:15:29;;;;;;;;;11.00;11.00;;;;;;;;6233891;22;50814;-68
2023/05/01 11:17:55;;;;;;;;;12.00;11.75;;;;;;;;6233603;22;50249;-69
2023/05/01 11:20:23;;;;;;;;;10.00;10.00;;;;;;;;6234067;22;50050;-69
2023/05/01 11:22:50;;;;;;;;;13.75;11.00;;;;;;;;6234251;22;49670;-69
2023/05/01 11:25:22;;;;;;;;;12.00;12.00;;;;;;;;6233459;22;49693;-69
2023/05/01 11:27:48;;;;;;;;;10.25;10.25;;;;;;;;6233765;22;49727;-69
2023/05/01 11:30:13;;;;;;;;;12.75;12.00;;;;;;;;6233951;22;49952;-68
2023/05/01 11:32:41;;;;;;;;;14.50;13.50;;;;;;;;6233506;22;49935;-69
2023/05/01 11:35:07;;;;;;;;;15.25;15.25;;;;;;;;6233241;22;50702;-69
2023/05/01 11:37:43;;;;;;;;;11.50;10.50;;;;;;;;6233215;22;49632;-69
2023/05/01 11:40:18;;;;;;;;;12.50;12.50;;;;;;;;6233797;22;49995;-69
2023/05/01 11:42:44;;;;;;;;;9.50;8.50;;;;;;;;6234009;22;49631;-69
2023/05/01 11:45:12;;;;;;;;;10.50;10.25;;;;;;;;6233504;22;49740;-69
2023/05/01 11:47:37;;;;;;;;;10.25;10.25;;;;;;;;6234337;22;49638;-69
2023/05/01 11:50:03;;;;;;;;;10.25;10.25;;;;;;;;6207334;22;49939;-69
2023/05/01 11:52:29;;;;;;;;;9.75;9.75;;;;;;;;6207370;22;50068;-68
2023/05/01 11:54:54;;;;;;;;;11.25;7.25;;;;;;;;6240693;22;49637;-66
2023/05/01 11:57:19;;;;;;;;;11.75;9.25;;;;;;;;6278999;22;41313;-70
2023/05/01 11:59:47;;;;;;;;;5.75;3.75;;;;;;;;6282329;22;8754;-70
2023/05/01 12:02:19;;;;;;;;;2.75;2.75;;;;;;;;6282242;22;8723;-71
2023/05/01 12:04:44;;;;;;;;;3.75;3.75;;;;;;;;6281782;22;10813;-70
2023/05/01 12:07:18;;;;;;;;;2.00;2.00;;;;;;;;6281873;22;10733;-71
2023/05/01 12:09:43;;;;;;;;;3.25;1.00;;;;;;;;6282062;22;9381;-71
2023/05/01 12:12:09;;;;;;;;;1.00;1.00;;;;;;;;6281730;22;10660;-70
2023/05/01 12:14:35;;;;;;;;;1.00;1.00;;;;;;;;6282137;22;8758;-72
2023/05/01 12:17:02;;;;;;;;;3.25;1.50;;;;;;;;6281461;22;8792;-71
2023/05/01 12:19:27;;;;;;;;;3.25;3.00;;;;;;;;6281989;22;8715;-71
2023/05/01 12:22:05;;;;;;;;;3.25;3.25;;;;;;;;6281732;22;10850;-71
2023/05/01 12:24:31;;;;;;;;;3.25;3.25;;;;;;;;6281682;22;8853;-71
2023/05/01 12:26:59;;;;;;;;;3.50;3.50;;;;;;;;6281946;22;10970;-71
2023/05/01 12:29:24;;;;;;;;;5.25;4.50;;;;;;;;6281866;22;9953;-71
2023/05/01 12:31:50;;;;;;;;;8.75;8.00;;;;;;;;6280809;22;10933;-71
2023/05/01 12:34:15;;;;;;;;;6.50;6.00;;;;;;;;6281811;22;8868;-71
2023/05/01 12:36:40;;;;;;;;;5.75;5.25;;;;;;;;6253819;22;8778;-71
2023/05/01 12:39:06;;;;;;;;;7.50;7.00;;;;;;;;6281837;22;8747;-71
2023/05/01 12:41:45;;;;;;;;;5.00;5.00;;;;;;;;6281925;22;8719;-71
2023/05/01 12:44:17;;;;;;;;;7.50;7.00;;;;;;;;6281418;22;8710;-72
2023/05/01 12:46:43;;;;;;;;;8.50;6.00;;;;;;;;6281729;22;11744;-71
2023/05/01 12:49:08;;;;;;;;;7.00;7.00;;;;;;;;6281676;22;10865;-72
2023/05/01 12:51:33;;;;;;;;;7.50;7.50;;;;;;;;6281383;22;10977;-72
2023/05/01 12:53:59;;;;;;;;;12.75;9.75;;;;;;;;6281231;22;8770;-71
2023/05/01 12:56:24;;;;;;;;;8.50;7.50;;;;;;;;6281449;22;8781;-72
2023/05/01 12:58:50;;;;;;;;;8.75;8.75;;;;;;;;6281212;22;8816;-72
2023/05/01 13:01:26;;;;;;;;;10.50;8.75;;;;;;;;6281696;22;8836;-72
2023/05/01 13:03:51;;;;;;;;;15.00;10.50;;;;;;;;6281240;22;11147;-72
2023/05/01 13:06:16;;;;;;;;;14.75;12.50;;;;;;;;6280878;22;11220;-72
2023/05/01 13:08:41;;;;;;;;;11.75;11.00;;;;;;;;6281748;22;8774;-72
2023/05/01 13:11:11;;;;;;;;;8.00;8.00;;;;;;;;6281400;22;8906;-72
2023/05/01 13:13:37;;;;;;;;;7.75;6.25;;;;;;;;6281813;22;8747;-72
2023/05/01 13:16:04;;;;;;;;;9.75;6.00;;;;;;;;6281397;22;11099;-72
2023/05/01 13:18:29;;;;;;;;;7.00;6.00;;;;;;;;6281654;22;8812;-73
2023/05/01 13:20:54;;;;;;;;;10.25;5.75;;;;;;;;6281382;22;10906;-72
2023/05/01 13:23:20;;;;;;;;;5.50;5.00;;;;;;;;6281756;22;8852;-72
2023/05/01 13:25:46;;;;;;;;;9.00;7.75;;;;;;;;6281316;22;8746;-72
2023/05/01 13:28:16;;;;;;;;;16.00;11.25;;;;;;;;6281530;22;8734;-72
2023/05/01 13:30:41;;;;;;;;;11.50;8.00;;;;;;;;6281363;22;8715;-72
2023/05/01 13:33:09;;;;;;;;;6.00;6.00;;;;;;;;6279522;22;11092;-72
2023/05/01 13:35:35;;;;;;;;;5.75;5.75;;;;;;;;6281159;22;9542;-73
2023/05/01 13:38:02;;;;;;;;;7.75;5.75;;;;;;;;6281529;22;11064;-72
2023/05/01 13:40:27;;;;;;;;;11.25;7.25;;;;;;;;6281134;22;8735;-72
2023/05/01 13:42:52;;;;;;;;;7.50;6.00;;;;;;;;6281401;22;11399;-72
2023/05/01 13:45:19;;;;;;;;;8.25;8.25;;;;;;;;6281597;22;8770;-72
2023/05/01 13:47:45;;;;;;;;;10.00;10.00;;;;;;;;6279467;22;8764;-72
2023/05/01 13:50:12;;;;;;;;;8.25;8.00;;;;;;;;6280894;22;11252;-72
2023/05/01 13:52:42;;;;;;;;;7.75;7.25;;;;;;;;6281395;22;8746;-72
2023/05/01 13:55:08;;;;;;;;;5.25;5.25;;;;;;;;6280896;22;10995;-72
2023/05/01 13:57:35;;;;;;;;;8.50;6.25;;;;;;;;6281365;22;10901;-72
2023/05/01 14:00:00;;;;;;;;;14.75;14.00;;;;;;;;6281464;22;8738;-72
2023/05/01 14:02:26;;;;;;;;;19.50;16.25;;;;;;;;6280956;22;11509;-73
2023/05/01 14:04:52;;;;;;;;;16.75;16.25;;;;;;;;6281464;22;8727;-73
2023/05/01 14:07:18;;;;;;;;;25.25;22.00;;;;;;;;6281281;22;11420;-73
2023/05/01 14:09:45;;;;;;;;;24.75;23.00;;;;;;;;6281085;22;8715;-73
2023/05/01 14:12:12;;;;;;;;;19.25;19.25;;;;;;;;6281253;22;11495;-74
2023/05/01 14:14:42;;;;;;;;;29.75;23.75;;;;;;;;6281195;22;11425;-73
2023/05/01 14:17:07;;;;;;;;;18.00;18.00;;;;;;;;6281064;22;11456;-74
2023/05/01 14:19:33;;;;;;;;;25.50;21.50;;;;;;;;6281304;22;11438;-73